sensor_id;sensor_type;location;lat;lon;timestamp;P1;durP1;ratioP1;P2;durP2;ratioP2
12838;SDS011;6486;51.034;5.262;2022-11-18T00:00:18;0.50;;;0.50;;
12838;SDS011;6486;51.034;5.262;2022-11-18T00:02:44;6.90;;;1.13;;
12838;SDS011;6486;51.034;5.262;2022-11-18T00:05:09;1.80;;;0.70;;
12838;SDS011;6486;51.034;5.262;2022-11-18T00:07:35;0.47;;;0.37;;
12838;SDS011;6486;51.034;5.262;2022-11-18T00:10:00;0.97;;;0.50;;
12838;SDS011;6486;51.034;5.262;2022-11-18T00:12:26;5.00;;;0.70;;
12838;SDS011;6486;51.034;5.262;2022-11-18T00:15:10;2.73;;;0.60;;
12838;SDS011;6486;51.034;5.262;2022-11-18T00:17:35;1.57;;;0.77;;
12838;SDS011;6486;51.034;5.262;2022-11-18T00:20:01;0.30;;;0.30;;
12838;SDS011;6486;51.034;5.262;2022-11-18T00:22:27;0.97;;;0.60;;
12838;SDS011;6486;51.034;5.262;2022-11-18T00:24:52;1.43;;;0.57;;
12838;SDS011;6486;51.034;5.262;2022-11-18T00:27:18;0.57;;;0.57;;
12838;SDS011;6486;51.034;5.262;2022-11-18T00:29:43;0.50;;;0.50;;
12838;SDS011;6486;51.034;5.262;2022-11-18T00:32:09;9.73;;;0.50;;
12838;SDS011;6486;51.034;5.262;2022-11-18T00:34:34;0.63;;;0.63;;
12838;SDS011;6486;51.034;5.262;2022-11-18T00:37:00;0.77;;;0.57;;
12838;SDS011;6486;51.034;5.262;2022-11-18T00:39:25;0.77;;;0.77;;
12838;SDS011;6486;51.034;5.262;2022-11-18T00:41:51;4.70;;;0.70;;
12838;SDS011;6486;51.034;5.262;2022-11-18T00:44:35;0.90;;;0.57;;
12838;SDS011;6486;51.034;5.262;2022-11-18T00:47:01;0.93;;;0.30;;
12838;SDS011;6486;51.034;5.262;2022-11-18T00:49:27;2.10;;;0.50;;
12838;SDS011;6486;51.034;5.262;2022-11-18T00:51:52;0.40;;;0.40;;
12838;SDS011;6486;51.034;5.262;2022-11-18T00:54:18;0.77;;;0.70;;
12838;SDS011;6486;51.034;5.262;2022-11-18T00:56:44;2.53;;;0.93;;
12838;SDS011;6486;51.034;5.262;2022-11-18T00:59:09;0.60;;;0.60;;
12838;SDS011;6486;51.034;5.262;2022-11-18T01:01:35;11.20;;;1.00;;
12838;SDS011;6486;51.034;5.262;2022-11-18T01:04:01;1.43;;;0.40;;
12838;SDS011;6486;51.034;5.262;2022-11-18T01:06:26;2.10;;;0.53;;
12838;SDS011;6486;51.034;5.262;2022-11-18T01:08:53;0.20;;;0.20;;
12838;SDS011;6486;51.034;5.262;2022-11-18T01:11:18;2.53;;;1.00;;
12838;SDS011;6486;51.034;5.262;2022-11-18T01:14:03;0.40;;;0.30;;
12838;SDS011;6486;51.034;5.262;2022-11-18T01:16:28;0.50;;;0.50;;
12838;SDS011;6486;51.034;5.262;2022-11-18T01:18:54;0.50;;;0.50;;
12838;SDS011;6486;51.034;5.262;2022-11-18T01:21:20;2.90;;;0.70;;
12838;SDS011;6486;51.034;5.262;2022-11-18T01:23:46;1.37;;;0.30;;
12838;SDS011;6486;51.034;5.262;2022-11-18T01:26:13;0.43;;;0.23;;
12838;SDS011;6486;51.034;5.262;2022-11-18T01:28:40;0.83;;;0.60;;
12838;SDS011;6486;51.034;5.262;2022-11-18T01:33:36;1.40;;;0.20;;
12838;SDS011;6486;51.034;5.262;2022-11-18T01:36:02;0.87;;;0.43;;
12838;SDS011;6486;51.034;5.262;2022-11-18T01:38:28;0.83;;;0.47;;
12838;SDS011;6486;51.034;5.262;2022-11-18T01:40:54;0.80;;;0.73;;
12838;SDS011;6486;51.034;5.262;2022-11-18T01:43:20;2.63;;;0.77;;
12838;SDS011;6486;51.034;5.262;2022-11-18T01:45:48;1.90;;;0.50;;
12838;SDS011;6486;51.034;5.262;2022-11-18T01:48:16;7.33;;;0.70;;
12838;SDS011;6486;51.034;5.262;2022-11-18T01:50:50;0.83;;;0.70;;
12838;SDS011;6486;51.034;5.262;2022-11-18T01:53:22;1.93;;;0.60;;
12838;SDS011;6486;51.034;5.262;2022-11-18T01:55:51;1.03;;;0.90;;
12838;SDS011;6486;51.034;5.262;2022-11-18T01:58:31;4.83;;;0.97;;
12838;SDS011;6486;51.034;5.262;2022-11-18T02:01:03;3.63;;;0.73;;
12838;SDS011;6486;51.034;5.262;2022-11-18T02:03:30;0.37;;;0.30;;
12838;SDS011;6486;51.034;5.262;2022-11-18T02:05:57;0.63;;;0.40;;
12838;SDS011;6486;51.034;5.262;2022-11-18T02:08:24;3.53;;;0.60;;
12838;SDS011;6486;51.034;5.262;2022-11-18T02:10:50;1.07;;;0.73;;
12838;SDS011;6486;51.034;5.262;2022-11-18T02:13:15;1.43;;;0.60;;
12838;SDS011;6486;51.034;5.262;2022-11-18T02:18:16;0.10;;;0.10;;
12838;SDS011;6486;51.034;5.262;2022-11-18T02:20:54;2.57;;;0.87;;
12838;SDS011;6486;51.034;5.262;2022-11-18T02:31:55;6.13;;;0.80;;
12838;SDS011;6486;51.034;5.262;2022-11-18T02:37:17;0.33;;;0.20;;
12838;SDS011;6486;51.034;5.262;2022-11-18T02:40:00;3.07;;;0.70;;
12838;SDS011;6486;51.034;5.262;2022-11-18T02:42:39;0.40;;;0.40;;
12838;SDS011;6486;51.034;5.262;2022-11-18T02:45:10;1.20;;;0.63;;
12838;SDS011;6486;51.034;5.262;2022-11-18T02:47:39;1.87;;;0.57;;
12838;SDS011;6486;51.034;5.262;2022-11-18T02:50:08;0.80;;;0.70;;
12838;SDS011;6486;51.034;5.262;2022-11-18T02:52:38;0.63;;;0.50;;
12838;SDS011;6486;51.034;5.262;2022-11-18T02:55:06;0.93;;;0.57;;
12838;SDS011;6486;51.034;5.262;2022-11-18T02:57:35;0.70;;;0.70;;
12838;SDS011;6486;51.034;5.262;2022-11-18T03:00:02;3.97;;;0.30;;
12838;SDS011;6486;51.034;5.262;2022-11-18T03:02:38;0.30;;;0.30;;
12838;SDS011;6486;51.034;5.262;2022-11-18T03:05:05;5.57;;;0.67;;
12838;SDS011;6486;51.034;5.262;2022-11-18T03:07:40;2.53;;;0.67;;
12838;SDS011;6486;51.034;5.262;2022-11-18T03:10:07;3.13;;;0.30;;
12838;SDS011;6486;51.034;5.262;2022-11-18T03:18:15;1.93;;;0.40;;
12838;SDS011;6486;51.034;5.262;2022-11-18T03:21:05;4.90;;;0.90;;
12838;SDS011;6486;51.034;5.262;2022-11-18T03:23:37;1.17;;;0.50;;
12838;SDS011;6486;51.034;5.262;2022-11-18T03:26:20;0.23;;;0.23;;
12838;SDS011;6486;51.034;5.262;2022-11-18T03:31:46;0.20;;;0.20;;
12838;SDS011;6486;51.034;5.262;2022-11-18T03:34:30;1.40;;;0.70;;
12838;SDS011;6486;51.034;5.262;2022-11-18T03:37:00;0.73;;;0.63;;
12838;SDS011;6486;51.034;5.262;2022-11-18T03:39:28;0.70;;;0.70;;
12838;SDS011;6486;51.034;5.262;2022-11-18T03:42:01;2.30;;;1.23;;
12838;SDS011;6486;51.034;5.262;2022-11-18T03:44:35;0.40;;;0.30;;
12838;SDS011;6486;51.034;5.262;2022-11-18T03:47:09;1.30;;;1.13;;
12838;SDS011;6486;51.034;5.262;2022-11-18T03:49:45;0.97;;;0.40;;
12838;SDS011;6486;51.034;5.262;2022-11-18T03:52:17;0.30;;;0.30;;
12838;SDS011;6486;51.034;5.262;2022-11-18T03:54:46;1.10;;;0.90;;
12838;SDS011;6486;51.034;5.262;2022-11-18T04:00:18;1.37;;;0.93;;
12838;SDS011;6486;51.034;5.262;2022-11-18T04:02:44;1.70;;;0.63;;
12838;SDS011;6486;51.034;5.262;2022-11-18T04:05:13;1.83;;;0.57;;
12838;SDS011;6486;51.034;5.262;2022-11-18T04:07:44;0.77;;;0.77;;
12838;SDS011;6486;51.034;5.262;2022-11-18T04:10:23;0.67;;;0.57;;
12838;SDS011;6486;51.034;5.262;2022-11-18T04:13:05;2.70;;;0.73;;
12838;SDS011;6486;51.034;5.262;2022-11-18T04:15:31;1.00;;;1.00;;
12838;SDS011;6486;51.034;5.262;2022-11-18T04:17:57;3.73;;;0.67;;
12838;SDS011;6486;51.034;5.262;2022-11-18T04:20:23;8.17;;;0.90;;
12838;SDS011;6486;51.034;5.262;2022-11-18T04:22:50;1.03;;;0.70;;
12838;SDS011;6486;51.034;5.262;2022-11-18T04:25:16;2.47;;;0.70;;
12838;SDS011;6486;51.034;5.262;2022-11-18T04:27:42;1.03;;;0.90;;
12838;SDS011;6486;51.034;5.262;2022-11-18T04:30:07;0.93;;;0.70;;
12838;SDS011;6486;51.034;5.262;2022-11-18T04:32:34;0.77;;;0.57;;
12838;SDS011;6486;51.034;5.262;2022-11-18T04:34:59;1.80;;;0.40;;
12838;SDS011;6486;51.034;5.262;2022-11-18T04:37:25;0.50;;;0.50;;
12838;SDS011;6486;51.034;5.262;2022-11-18T04:39:50;0.53;;;0.40;;
12838;SDS011;6486;51.034;5.262;2022-11-18T04:42:16;6.37;;;1.00;;
12838;SDS011;6486;51.034;5.262;2022-11-18T04:44:42;0.90;;;0.47;;
12838;SDS011;6486;51.034;5.262;2022-11-18T04:47:07;0.47;;;0.40;;
12838;SDS011;6486;51.034;5.262;2022-11-18T04:49:33;0.80;;;0.80;;
12838;SDS011;6486;51.034;5.262;2022-11-18T04:51:59;1.40;;;0.43;;
12838;SDS011;6486;51.034;5.262;2022-11-18T04:54:26;15.03;;;0.70;;
12838;SDS011;6486;51.034;5.262;2022-11-18T04:56:52;2.53;;;0.50;;
12838;SDS011;6486;51.034;5.262;2022-11-18T04:59:20;2.37;;;0.77;;
12838;SDS011;6486;51.034;5.262;2022-11-18T05:01:48;0.40;;;0.40;;
12838;SDS011;6486;51.034;5.262;2022-11-18T05:04:15;0.80;;;0.37;;
12838;SDS011;6486;51.034;5.262;2022-11-18T05:06:42;1.73;;;1.00;;
12838;SDS011;6486;51.034;5.262;2022-11-18T05:09:08;3.60;;;0.40;;
12838;SDS011;6486;51.034;5.262;2022-11-18T05:11:34;0.83;;;0.70;;
12838;SDS011;6486;51.034;5.262;2022-11-18T05:14:19;1.43;;;0.70;;
12838;SDS011;6486;51.034;5.262;2022-11-18T05:16:44;0.40;;;0.40;;
12838;SDS011;6486;51.034;5.262;2022-11-18T05:19:10;0.50;;;0.33;;
12838;SDS011;6486;51.034;5.262;2022-11-18T05:21:35;0.83;;;0.77;;
12838;SDS011;6486;51.034;5.262;2022-11-18T05:24:01;0.40;;;0.40;;
12838;SDS011;6486;51.034;5.262;2022-11-18T05:26:28;1.17;;;1.03;;
12838;SDS011;6486;51.034;5.262;2022-11-18T05:28:54;1.13;;;0.67;;
12838;SDS011;6486;51.034;5.262;2022-11-18T05:31:20;3.90;;;1.00;;
12838;SDS011;6486;51.034;5.262;2022-11-18T05:33:46;1.90;;;0.70;;
12838;SDS011;6486;51.034;5.262;2022-11-18T05:36:12;0.47;;;0.47;;
12838;SDS011;6486;51.034;5.262;2022-11-18T05:38:40;2.00;;;0.20;;
12838;SDS011;6486;51.034;5.262;2022-11-18T05:41:06;1.50;;;0.87;;
12838;SDS011;6486;51.034;5.262;2022-11-18T05:43:32;2.27;;;1.03;;
12838;SDS011;6486;51.034;5.262;2022-11-18T05:45:58;2.53;;;0.80;;
12838;SDS011;6486;51.034;5.262;2022-11-18T05:48:25;1.90;;;0.97;;
12838;SDS011;6486;51.034;5.262;2022-11-18T05:50:51;2.67;;;0.90;;
12838;SDS011;6486;51.034;5.262;2022-11-18T05:53:18;0.57;;;0.57;;
12838;SDS011;6486;51.034;5.262;2022-11-18T05:55:56;0.90;;;0.90;;
12838;SDS011;6486;51.034;5.262;2022-11-18T05:58:22;17.93;;;0.50;;
12838;SDS011;6486;51.034;5.262;2022-11-18T06:00:49;0.60;;;0.60;;
12838;SDS011;6486;51.034;5.262;2022-11-18T06:03:19;1.07;;;0.77;;
12838;SDS011;6486;51.034;5.262;2022-11-18T06:05:48;3.70;;;1.30;;
12838;SDS011;6486;51.034;5.262;2022-11-18T06:08:14;1.13;;;0.50;;
12838;SDS011;6486;51.034;5.262;2022-11-18T06:10:43;0.50;;;0.40;;
12838;SDS011;6486;51.034;5.262;2022-11-18T06:13:13;3.60;;;1.00;;
12838;SDS011;6486;51.034;5.262;2022-11-18T06:15:41;1.60;;;0.50;;
12838;SDS011;6486;51.034;5.262;2022-11-18T06:18:10;1.47;;;0.90;;
12838;SDS011;6486;51.034;5.262;2022-11-18T06:20:51;0.60;;;0.60;;
12838;SDS011;6486;51.034;5.262;2022-11-18T06:23:19;5.40;;;1.40;;
12838;SDS011;6486;51.034;5.262;2022-11-18T06:25:45;0.73;;;0.73;;
12838;SDS011;6486;51.034;5.262;2022-11-18T06:28:11;1.77;;;1.00;;
12838;SDS011;6486;51.034;5.262;2022-11-18T06:30:39;0.57;;;0.57;;
12838;SDS011;6486;51.034;5.262;2022-11-18T06:33:05;0.97;;;0.97;;
12838;SDS011;6486;51.034;5.262;2022-11-18T06:35:30;1.33;;;1.03;;
12838;SDS011;6486;51.034;5.262;2022-11-18T06:37:56;2.17;;;0.87;;
12838;SDS011;6486;51.034;5.262;2022-11-18T06:40:22;1.80;;;0.83;;
12838;SDS011;6486;51.034;5.262;2022-11-18T06:42:47;3.67;;;0.90;;
12838;SDS011;6486;51.034;5.262;2022-11-18T06:45:31;0.67;;;0.67;;
12838;SDS011;6486;51.034;5.262;2022-11-18T06:47:57;1.63;;;0.83;;
12838;SDS011;6486;51.034;5.262;2022-11-18T06:50:25;5.53;;;1.67;;
12838;SDS011;6486;51.034;5.262;2022-11-18T06:52:51;2.47;;;1.00;;
12838;SDS011;6486;51.034;5.262;2022-11-18T06:55:17;1.17;;;0.83;;
12838;SDS011;6486;51.034;5.262;2022-11-18T06:57:43;2.17;;;0.80;;
12838;SDS011;6486;51.034;5.262;2022-11-18T07:00:09;0.73;;;0.67;;
12838;SDS011;6486;51.034;5.262;2022-11-18T07:02:35;1.30;;;1.20;;
12838;SDS011;6486;51.034;5.262;2022-11-18T07:05:02;2.83;;;0.77;;
12838;SDS011;6486;51.034;5.262;2022-11-18T07:07:28;2.40;;;1.17;;
12838;SDS011;6486;51.034;5.262;2022-11-18T07:09:54;1.23;;;1.13;;
12838;SDS011;6486;51.034;5.262;2022-11-18T07:12:19;1.43;;;1.03;;
12838;SDS011;6486;51.034;5.262;2022-11-18T07:14:45;2.30;;;1.13;;
12838;SDS011;6486;51.034;5.262;2022-11-18T07:17:11;2.37;;;1.30;;
12838;SDS011;6486;51.034;5.262;2022-11-18T07:19:37;1.90;;;1.23;;
12838;SDS011;6486;51.034;5.262;2022-11-18T07:22:04;1.37;;;1.27;;
12838;SDS011;6486;51.034;5.262;2022-11-18T07:24:29;1.93;;;1.27;;
12838;SDS011;6486;51.034;5.262;2022-11-18T07:26:55;1.50;;;1.40;;
12838;SDS011;6486;51.034;5.262;2022-11-18T07:29:21;4.20;;;1.47;;
12838;SDS011;6486;51.034;5.262;2022-11-18T07:31:46;1.53;;;1.00;;
12838;SDS011;6486;51.034;5.262;2022-11-18T07:34:12;4.17;;;1.30;;
12838;SDS011;6486;51.034;5.262;2022-11-18T07:36:38;1.00;;;0.90;;
12838;SDS011;6486;51.034;5.262;2022-11-18T07:39:04;1.67;;;0.80;;
12838;SDS011;6486;51.034;5.262;2022-11-18T07:41:31;2.20;;;0.70;;
12838;SDS011;6486;51.034;5.262;2022-11-18T07:43:58;4.73;;;1.60;;
12838;SDS011;6486;51.034;5.262;2022-11-18T07:46:26;1.60;;;0.87;;
12838;SDS011;6486;51.034;5.262;2022-11-18T07:49:00;1.17;;;0.63;;
12838;SDS011;6486;51.034;5.262;2022-11-18T07:51:27;1.23;;;0.77;;
12838;SDS011;6486;51.034;5.262;2022-11-18T07:53:54;1.30;;;0.80;;
12838;SDS011;6486;51.034;5.262;2022-11-18T07:56:20;0.93;;;0.70;;
12838;SDS011;6486;51.034;5.262;2022-11-18T07:58:46;3.30;;;0.70;;
12838;SDS011;6486;51.034;5.262;2022-11-18T08:01:16;1.73;;;1.43;;
12838;SDS011;6486;51.034;5.262;2022-11-18T08:03:44;1.13;;;0.80;;
12838;SDS011;6486;51.034;5.262;2022-11-18T08:06:11;1.50;;;1.40;;
12838;SDS011;6486;51.034;5.262;2022-11-18T08:08:39;6.43;;;1.00;;
12838;SDS011;6486;51.034;5.262;2022-11-18T08:11:06;5.43;;;1.30;;
12838;SDS011;6486;51.034;5.262;2022-11-18T08:13:33;3.77;;;1.27;;
12838;SDS011;6486;51.034;5.262;2022-11-18T08:16:00;1.07;;;0.73;;
12838;SDS011;6486;51.034;5.262;2022-11-18T08:18:30;0.80;;;0.70;;
12838;SDS011;6486;51.034;5.262;2022-11-18T08:21:05;0.57;;;0.50;;
12838;SDS011;6486;51.034;5.262;2022-11-18T08:23:30;2.23;;;1.13;;
12838;SDS011;6486;51.034;5.262;2022-11-18T08:26:06;2.97;;;0.97;;
12838;SDS011;6486;51.034;5.262;2022-11-18T08:28:32;2.73;;;1.13;;
12838;SDS011;6486;51.034;5.262;2022-11-18T08:30:58;4.10;;;0.60;;
12838;SDS011;6486;51.034;5.262;2022-11-18T08:33:23;0.80;;;0.67;;
12838;SDS011;6486;51.034;5.262;2022-11-18T08:35:49;1.10;;;0.93;;
12838;SDS011;6486;51.034;5.262;2022-11-18T08:38:15;4.40;;;0.80;;
12838;SDS011;6486;51.034;5.262;2022-11-18T08:40:41;1.97;;;1.33;;
12838;SDS011;6486;51.034;5.262;2022-11-18T08:43:09;4.47;;;1.13;;
12838;SDS011;6486;51.034;5.262;2022-11-18T08:45:36;1.37;;;1.13;;
12838;SDS011;6486;51.034;5.262;2022-11-18T08:48:03;1.90;;;1.13;;
12838;SDS011;6486;51.034;5.262;2022-11-18T08:50:28;3.80;;;0.70;;
12838;SDS011;6486;51.034;5.262;2022-11-18T08:52:54;1.27;;;1.00;;
12838;SDS011;6486;51.034;5.262;2022-11-18T08:55:20;2.63;;;0.70;;
12838;SDS011;6486;51.034;5.262;2022-11-18T08:57:45;4.60;;;1.23;;
12838;SDS011;6486;51.034;5.262;2022-11-18T09:00:12;1.13;;;1.03;;
12838;SDS011;6486;51.034;5.262;2022-11-18T09:02:38;1.33;;;0.80;;
12838;SDS011;6486;51.034;5.262;2022-11-18T09:05:03;0.93;;;0.77;;
12838;SDS011;6486;51.034;5.262;2022-11-18T09:07:29;5.40;;;1.57;;
12838;SDS011;6486;51.034;5.262;2022-11-18T09:09:55;3.43;;;1.33;;
12838;SDS011;6486;51.034;5.262;2022-11-18T09:12:20;3.43;;;1.10;;
12838;SDS011;6486;51.034;5.262;2022-11-18T09:14:46;1.10;;;0.83;;
12838;SDS011;6486;51.034;5.262;2022-11-18T09:17:12;1.37;;;0.60;;
12838;SDS011;6486;51.034;5.262;2022-11-18T09:19:38;5.83;;;0.93;;
12838;SDS011;6486;51.034;5.262;2022-11-18T09:22:04;0.50;;;0.50;;
12838;SDS011;6486;51.034;5.262;2022-11-18T09:24:30;0.50;;;0.50;;
12838;SDS011;6486;51.034;5.262;2022-11-18T09:26:56;3.93;;;1.90;;
12838;SDS011;6486;51.034;5.262;2022-11-18T09:29:22;0.90;;;0.70;;
12838;SDS011;6486;51.034;5.262;2022-11-18T09:31:50;1.37;;;1.27;;
12838;SDS011;6486;51.034;5.262;2022-11-18T09:34:16;1.90;;;1.50;;
12838;SDS011;6486;51.034;5.262;2022-11-18T09:36:42;0.97;;;0.97;;
12838;SDS011;6486;51.034;5.262;2022-11-18T09:39:07;2.80;;;0.80;;
12838;SDS011;6486;51.034;5.262;2022-11-18T09:44:07;4.90;;;1.17;;
12838;SDS011;6486;51.034;5.262;2022-11-18T09:46:53;1.03;;;0.70;;
12838;SDS011;6486;51.034;5.262;2022-11-18T09:49:33;2.93;;;0.93;;
12838;SDS011;6486;51.034;5.262;2022-11-18T09:54:51;1.00;;;1.00;;
12838;SDS011;6486;51.034;5.262;2022-11-18T09:57:19;1.73;;;0.70;;
12838;SDS011;6486;51.034;5.262;2022-11-18T09:59:47;4.57;;;1.47;;
12838;SDS011;6486;51.034;5.262;2022-11-18T10:04:44;0.63;;;0.63;;
12838;SDS011;6486;51.034;5.262;2022-11-18T10:07:19;1.07;;;0.97;;
12838;SDS011;6486;51.034;5.262;2022-11-18T10:09:50;2.40;;;0.90;;
12838;SDS011;6486;51.034;5.262;2022-11-18T10:12:26;1.70;;;1.57;;
12838;SDS011;6486;51.034;5.262;2022-11-18T10:21:15;3.60;;;1.00;;
12838;SDS011;6486;51.034;5.262;2022-11-18T10:23:28;0.83;;;0.83;;
12838;SDS011;6486;51.034;5.262;2022-11-18T10:25:59;9.47;;;1.00;;
12838;SDS011;6486;51.034;5.262;2022-11-18T10:28:25;0.70;;;0.70;;
12838;SDS011;6486;51.034;5.262;2022-11-18T10:30:53;2.43;;;1.30;;
12838;SDS011;6486;51.034;5.262;2022-11-18T10:33:31;1.10;;;1.07;;
12838;SDS011;6486;51.034;5.262;2022-11-18T10:38:35;2.20;;;1.10;;
12838;SDS011;6486;51.034;5.262;2022-11-18T10:41:02;1.40;;;1.23;;
12838;SDS011;6486;51.034;5.262;2022-11-18T10:46:15;1.10;;;0.60;;
12838;SDS011;6486;51.034;5.262;2022-11-18T10:52:20;5.00;;;0.97;;
12838;SDS011;6486;51.034;5.262;2022-11-18T10:54:36;8.60;;;1.27;;
12838;SDS011;6486;51.034;5.262;2022-11-18T10:59:39;6.60;;;1.37;;
12838;SDS011;6486;51.034;5.262;2022-11-18T11:05:19;11.23;;;1.47;;
12838;SDS011;6486;51.034;5.262;2022-11-18T11:08:03;5.53;;;1.43;;
12838;SDS011;6486;51.034;5.262;2022-11-18T11:10:41;1.70;;;0.90;;
12838;SDS011;6486;51.034;5.262;2022-11-18T11:13:21;2.57;;;1.80;;
12838;SDS011;6486;51.034;5.262;2022-11-18T11:15:51;1.00;;;0.87;;
12838;SDS011;6486;51.034;5.262;2022-11-18T11:18:20;3.20;;;1.10;;
12838;SDS011;6486;51.034;5.262;2022-11-18T11:23:38;1.13;;;0.93;;
12838;SDS011;6486;51.034;5.262;2022-11-18T11:26:11;2.17;;;0.70;;
12838;SDS011;6486;51.034;5.262;2022-11-18T11:28:47;0.73;;;0.50;;
12838;SDS011;6486;51.034;5.262;2022-11-18T11:34:09;1.73;;;1.23;;
12838;SDS011;6486;51.034;5.262;2022-11-18T11:53:02;5.97;;;1.10;;
12838;SDS011;6486;51.034;5.262;2022-11-18T11:56:11;0.60;;;0.60;;
12838;SDS011;6486;51.034;5.262;2022-11-18T12:01:26;1.40;;;1.23;;
12838;SDS011;6486;51.034;5.262;2022-11-18T12:04:02;3.00;;;0.77;;
12838;SDS011;6486;51.034;5.262;2022-11-18T12:06:51;5.60;;;1.50;;
12838;SDS011;6486;51.034;5.262;2022-11-18T12:12:36;2.60;;;0.90;;
12838;SDS011;6486;51.034;5.262;2022-11-18T12:15:03;3.30;;;0.73;;
12838;SDS011;6486;51.034;5.262;2022-11-18T12:20:35;2.07;;;1.17;;
12838;SDS011;6486;51.034;5.262;2022-11-18T12:23:19;3.77;;;1.20;;
12838;SDS011;6486;51.034;5.262;2022-11-18T12:28:22;0.80;;;0.60;;
12838;SDS011;6486;51.034;5.262;2022-11-18T12:30:49;2.70;;;0.83;;
12838;SDS011;6486;51.034;5.262;2022-11-18T12:33:40;0.90;;;0.90;;
12838;SDS011;6486;51.034;5.262;2022-11-18T12:36:08;1.53;;;1.03;;
12838;SDS011;6486;51.034;5.262;2022-11-18T12:38:34;3.80;;;1.30;;
12838;SDS011;6486;51.034;5.262;2022-11-18T12:40:59;1.43;;;0.67;;
12838;SDS011;6486;51.034;5.262;2022-11-18T12:49:59;0.80;;;0.80;;
12838;SDS011;6486;51.034;5.262;2022-11-18T12:51:47;1.97;;;0.93;;
12838;SDS011;6486;51.034;5.262;2022-11-18T12:56:51;1.77;;;0.60;;
12838;SDS011;6486;51.034;5.262;2022-11-18T12:59:25;4.53;;;0.83;;
12838;SDS011;6486;51.034;5.262;2022-11-18T13:02:03;1.20;;;0.50;;
12838;SDS011;6486;51.034;5.262;2022-11-18T13:05:05;3.87;;;1.20;;
12838;SDS011;6486;51.034;5.262;2022-11-18T13:07:31;0.60;;;0.60;;
12838;SDS011;6486;51.034;5.262;2022-11-18T13:10:22;3.07;;;1.00;;
12838;SDS011;6486;51.034;5.262;2022-11-18T13:12:51;1.00;;;0.67;;
12838;SDS011;6486;51.034;5.262;2022-11-18T13:15:18;1.37;;;0.50;;
12838;SDS011;6486;51.034;5.262;2022-11-18T13:20:42;0.97;;;0.97;;
12838;SDS011;6486;51.034;5.262;2022-11-18T13:23:28;5.23;;;1.37;;
12838;SDS011;6486;51.034;5.262;2022-11-18T13:26:26;3.77;;;1.30;;
12838;SDS011;6486;51.034;5.262;2022-11-18T13:34:21;1.83;;;0.73;;
12838;SDS011;6486;51.034;5.262;2022-11-18T13:36:49;1.00;;;0.70;;
12838;SDS011;6486;51.034;5.262;2022-11-18T13:39:17;0.87;;;0.63;;
12838;SDS011;6486;51.034;5.262;2022-11-18T13:41:57;1.00;;;0.90;;
12838;SDS011;6486;51.034;5.262;2022-11-18T13:44:23;3.07;;;2.47;;
12838;SDS011;6486;51.034;5.262;2022-11-18T13:46:52;2.37;;;1.73;;
12838;SDS011;6486;51.034;5.262;2022-11-18T13:49:29;1.70;;;1.10;;
12838;SDS011;6486;51.034;5.262;2022-11-18T13:52:04;1.60;;;1.47;;
12838;SDS011;6486;51.034;5.262;2022-11-18T13:54:34;1.47;;;1.30;;
12838;SDS011;6486;51.034;5.262;2022-11-18T13:57:00;1.33;;;0.70;;
12838;SDS011;6486;51.034;5.262;2022-11-18T13:59:25;1.07;;;0.77;;
12838;SDS011;6486;51.034;5.262;2022-11-18T14:01:53;1.03;;;0.60;;
12838;SDS011;6486;51.034;5.262;2022-11-18T14:04:24;0.97;;;0.40;;
12838;SDS011;6486;51.034;5.262;2022-11-18T14:06:52;0.93;;;0.60;;
12838;SDS011;6486;51.034;5.262;2022-11-18T14:09:25;0.87;;;0.67;;
12838;SDS011;6486;51.034;5.262;2022-11-18T14:12:05;0.30;;;0.30;;
12838;SDS011;6486;51.034;5.262;2022-11-18T14:14:46;1.67;;;0.50;;
12838;SDS011;6486;51.034;5.262;2022-11-18T14:19:44;2.60;;;0.63;;
12838;SDS011;6486;51.034;5.262;2022-11-18T14:22:16;0.70;;;0.57;;
12838;SDS011;6486;51.034;5.262;2022-11-18T14:33:06;3.73;;;2.43;;
12838;SDS011;6486;51.034;5.262;2022-11-18T14:35:35;6.30;;;2.53;;
12838;SDS011;6486;51.034;5.262;2022-11-18T14:38:18;4.93;;;1.70;;
12838;SDS011;6486;51.034;5.262;2022-11-18T14:40:56;7.80;;;2.00;;
12838;SDS011;6486;51.034;5.262;2022-11-18T14:43:25;1.57;;;1.47;;
12838;SDS011;6486;51.034;5.262;2022-11-18T14:45:51;1.70;;;1.60;;
12838;SDS011;6486;51.034;5.262;2022-11-18T14:48:20;3.13;;;2.00;;
12838;SDS011;6486;51.034;5.262;2022-11-18T14:50:47;4.83;;;1.10;;
12838;SDS011;6486;51.034;5.262;2022-11-18T14:53:13;1.83;;;1.40;;
12838;SDS011;6486;51.034;5.262;2022-11-18T14:55:39;3.93;;;2.97;;
12838;SDS011;6486;51.034;5.262;2022-11-18T14:58:07;2.10;;;1.13;;
12838;SDS011;6486;51.034;5.262;2022-11-18T15:00:39;2.23;;;1.50;;
12838;SDS011;6486;51.034;5.262;2022-11-18T15:03:08;11.40;;;5.73;;
12838;SDS011;6486;51.034;5.262;2022-11-18T15:05:34;1.10;;;0.90;;
12838;SDS011;6486;51.034;5.262;2022-11-18T15:08:00;1.10;;;1.00;;
12838;SDS011;6486;51.034;5.262;2022-11-18T15:10:25;2.77;;;1.40;;
12838;SDS011;6486;51.034;5.262;2022-11-18T15:12:51;2.53;;;2.33;;
12838;SDS011;6486;51.034;5.262;2022-11-18T15:15:17;4.80;;;2.47;;
12838;SDS011;6486;51.034;5.262;2022-11-18T15:17:42;1.90;;;1.10;;
12838;SDS011;6486;51.034;5.262;2022-11-18T15:20:09;2.47;;;0.90;;
12838;SDS011;6486;51.034;5.262;2022-11-18T15:22:38;2.73;;;0.67;;
12838;SDS011;6486;51.034;5.262;2022-11-18T15:25:03;0.50;;;0.43;;
12838;SDS011;6486;51.034;5.262;2022-11-18T15:27:29;6.87;;;2.37;;
12838;SDS011;6486;51.034;5.262;2022-11-18T15:29:55;2.30;;;1.47;;
12838;SDS011;6486;51.034;5.262;2022-11-18T15:32:21;6.60;;;1.30;;
12838;SDS011;6486;51.034;5.262;2022-11-18T15:34:46;19.73;;;8.57;;
12838;SDS011;6486;51.034;5.262;2022-11-18T15:37:12;126.37;;;43.27;;
12838;SDS011;6486;51.034;5.262;2022-11-18T15:39:38;59.67;;;22.10;;
12838;SDS011;6486;51.034;5.262;2022-11-18T15:42:04;49.40;;;17.43;;
12838;SDS011;6486;51.034;5.262;2022-11-18T15:44:29;10.97;;;5.53;;
12838;SDS011;6486;51.034;5.262;2022-11-18T15:46:55;1.93;;;1.00;;
12838;SDS011;6486;51.034;5.262;2022-11-18T15:49:21;1.93;;;1.50;;
12838;SDS011;6486;51.034;5.262;2022-11-18T15:51:47;1.17;;;0.73;;
12838;SDS011;6486;51.034;5.262;2022-11-18T15:54:12;3.53;;;1.93;;
12838;SDS011;6486;51.034;5.262;2022-11-18T15:56:38;2.73;;;2.03;;
12838;SDS011;6486;51.034;5.262;2022-11-18T15:59:09;1.30;;;1.20;;
12838;SDS011;6486;51.034;5.262;2022-11-18T16:01:40;4.40;;;1.63;;
12838;SDS011;6486;51.034;5.262;2022-11-18T16:04:08;1.80;;;0.97;;
12838;SDS011;6486;51.034;5.262;2022-11-18T16:06:35;2.10;;;1.43;;
12838;SDS011;6486;51.034;5.262;2022-11-18T16:09:01;1.20;;;1.10;;
12838;SDS011;6486;51.034;5.262;2022-11-18T16:11:28;1.13;;;1.03;;
12838;SDS011;6486;51.034;5.262;2022-11-18T16:14:12;1.57;;;1.40;;
12838;SDS011;6486;51.034;5.262;2022-11-18T16:16:40;1.23;;;1.13;;
12838;SDS011;6486;51.034;5.262;2022-11-18T16:19:08;1.47;;;1.03;;
12838;SDS011;6486;51.034;5.262;2022-11-18T16:21:37;2.57;;;1.60;;
12838;SDS011;6486;51.034;5.262;2022-11-18T16:24:05;4.30;;;1.30;;
12838;SDS011;6486;51.034;5.262;2022-11-18T16:26:33;3.20;;;1.47;;
12838;SDS011;6486;51.034;5.262;2022-11-18T16:29:03;2.47;;;1.50;;
12838;SDS011;6486;51.034;5.262;2022-11-18T16:31:29;2.10;;;1.80;;
12838;SDS011;6486;51.034;5.262;2022-11-18T16:34:14;1.47;;;1.37;;
12838;SDS011;6486;51.034;5.262;2022-11-18T16:36:51;1.83;;;1.07;;
12838;SDS011;6486;51.034;5.262;2022-11-18T16:39:19;1.90;;;1.63;;
12838;SDS011;6486;51.034;5.262;2022-11-18T16:41:50;4.57;;;1.27;;
12838;SDS011;6486;51.034;5.262;2022-11-18T16:44:17;6.10;;;2.13;;
12838;SDS011;6486;51.034;5.262;2022-11-18T16:46:53;1.60;;;1.40;;
12838;SDS011;6486;51.034;5.262;2022-11-18T16:49:21;1.87;;;1.33;;
12838;SDS011;6486;51.034;5.262;2022-11-18T16:51:49;2.47;;;1.40;;
12838;SDS011;6486;51.034;5.262;2022-11-18T16:54:20;2.77;;;1.40;;
12838;SDS011;6486;51.034;5.262;2022-11-18T16:56:47;2.87;;;2.00;;
12838;SDS011;6486;51.034;5.262;2022-11-18T16:59:17;4.57;;;2.53;;
12838;SDS011;6486;51.034;5.262;2022-11-18T17:01:48;3.17;;;1.70;;
12838;SDS011;6486;51.034;5.262;2022-11-18T17:04:14;4.87;;;2.20;;
12838;SDS011;6486;51.034;5.262;2022-11-18T17:06:40;1.77;;;1.50;;
12838;SDS011;6486;51.034;5.262;2022-11-18T17:09:07;6.27;;;1.23;;